createdAt,value
2022-10-18T00:00:25.989Z,22.00
2022-10-18T00:01:25.964Z,23.30
2022-10-18T00:02:26.019Z,22.50
2022-10-18T00:03:25.936Z,21.00
2022-10-18T00:04:25.924Z,22.40
2022-10-18T00:05:25.945Z,21.70
2022-10-18T00:06:25.942Z,22.20
2022-10-18T00:07:25.918Z,22.70
2022-10-18T00:08:25.889Z,24.10
2022-10-18T00:09:25.883Z,23.60
2022-10-18T00:10:25.884Z,23.40
2022-10-18T00:11:25.854Z,23.30
2022-10-18T00:12:25.843Z,24.80
2022-10-18T00:13:25.817Z,23.00
2022-10-18T00:14:25.844Z,22.50
2022-10-18T00:15:25.810Z,23.10
2022-10-18T00:16:25.806Z,22.90
2022-10-18T00:17:25.799Z,22.60
2022-10-18T00:18:25.769Z,23.10
2022-10-18T00:19:28.531Z,23.10
2022-10-18T00:20:25.765Z,23.80
2022-10-18T00:21:25.751Z,22.60
2022-10-18T00:22:25.733Z,22.30
2022-10-18T00:23:25.720Z,22.80
2022-10-18T00:24:25.700Z,22.90
2022-10-18T00:25:25.693Z,23.80
2022-10-18T00:26:25.693Z,22.60
2022-10-18T00:27:25.663Z,23.00
2022-10-18T00:28:25.722Z,22.70
2022-10-18T00:29:25.651Z,22.30
2022-10-18T00:30:25.646Z,22.80
2022-10-18T00:31:25.646Z,22.90
2022-10-18T00:32:25.611Z,22.10
2022-10-18T00:33:25.606Z,22.90
2022-10-18T00:34:25.610Z,24.40
2022-10-18T00:35:25.572Z,23.10
2022-10-18T00:36:25.568Z,21.70
2022-10-18T00:37:25.574Z,23.60
2022-10-18T00:38:25.544Z,23.20
2022-10-18T00:39:25.541Z,22.90
2022-10-18T00:40:25.537Z,22.30
2022-10-18T00:41:25.506Z,22.80
2022-10-18T00:42:25.517Z,21.40
2022-10-18T00:43:25.495Z,22.50
2022-10-18T00:44:25.490Z,21.60
2022-10-18T00:45:32.513Z,22.90
2022-10-18T00:46:25.465Z,22.10
2022-10-18T00:47:25.437Z,21.80
2022-10-18T00:48:25.433Z,21.90
2022-10-18T00:49:25.424Z,23.10
2022-10-18T00:50:25.426Z,21.70
2022-10-18T00:51:25.524Z,19.70
2022-10-18T00:52:25.395Z,21.60
2022-10-18T00:53:25.402Z,22.20
2022-10-18T00:54:25.388Z,21.00
2022-10-18T00:55:25.349Z,21.80
2022-10-18T00:56:25.349Z,22.60
2022-10-18T00:57:25.326Z,21.40
2022-10-18T00:58:25.321Z,21.10
2022-10-18T00:59:25.316Z,22.50
2022-10-18T01:00:25.311Z,22.30
2022-10-18T01:01:28.280Z,21.80
2022-10-18T01:02:25.276Z,21.50
2022-10-18T01:03:25.269Z,22.40
2022-10-18T01:04:25.270Z,21.90
2022-10-18T01:05:25.261Z,21.20
2022-10-18T01:06:25.242Z,22.80
2022-10-18T01:07:25.268Z,21.80
2022-10-18T01:08:25.210Z,21.20
2022-10-18T01:09:25.223Z,22.00
2022-10-18T01:10:25.210Z,21.80
2022-10-18T01:11:25.170Z,21.80
2022-10-18T01:12:25.163Z,22.50
2022-10-18T01:13:25.982Z,23.00
2022-10-18T01:14:25.162Z,22.70
2022-10-18T01:15:25.159Z,22.10
2022-10-18T01:16:25.123Z,23.10
2022-10-18T01:17:25.116Z,22.10
2022-10-18T01:18:25.107Z,21.10
2022-10-18T01:19:25.092Z,21.10
2022-10-18T01:20:25.087Z,20.30
2022-10-18T01:21:25.058Z,21.50
2022-10-18T01:22:25.051Z,21.80
2022-10-18T01:23:25.035Z,21.30
2022-10-18T01:24:25.041Z,21.90
2022-10-18T01:25:25.038Z,21.00
2022-10-18T01:26:25.009Z,21.30
2022-10-18T01:27:24.998Z,21.20
2022-10-18T01:28:25.054Z,21.50
2022-10-18T01:29:24.997Z,20.30
2022-10-18T01:30:24.974Z,19.50
2022-10-18T01:31:24.957Z,20.70
2022-10-18T01:32:24.957Z,19.80
2022-10-18T01:33:24.945Z,21.70
2022-10-18T01:34:24.926Z,20.60
2022-10-18T01:35:24.923Z,20.20
2022-10-18T01:36:24.895Z,20.60
2022-10-18T01:37:24.888Z,20.90
2022-10-18T01:38:24.874Z,19.20
2022-10-18T01:39:24.888Z,19.50
2022-10-18T01:40:24.872Z,19.40
2022-10-18T01:41:24.863Z,20.80
2022-10-18T01:42:24.850Z,20.10
2022-10-18T01:43:24.812Z,20.40
2022-10-18T01:44:24.806Z,19.40
2022-10-18T01:45:24.812Z,19.70
2022-10-18T01:46:24.784Z,20.50
2022-10-18T01:47:24.768Z,20.20
2022-10-18T01:48:24.777Z,19.60
2022-10-18T01:49:24.745Z,19.90
2022-10-18T01:50:24.763Z,20.60
2022-10-18T01:51:24.731Z,20.70
2022-10-18T01:52:24.733Z,20.20
2022-10-18T01:53:24.726Z,20.10
2022-10-18T01:54:24.703Z,20.50
2022-10-18T01:55:24.690Z,20.30
2022-10-18T01:56:24.695Z,21.10
2022-10-18T01:57:24.678Z,21.10
2022-10-18T01:58:24.649Z,20.10
2022-10-18T01:59:24.641Z,21.20
2022-10-18T22:45:34.844Z,5.50
2022-10-18T22:46:34.799Z,5.90
2022-10-18T22:47:35.177Z,6.40
2022-10-18T22:48:34.779Z,7.20
2022-10-18T22:49:34.777Z,7.10
2022-10-18T22:50:34.758Z,6.70
2022-10-18T22:52:34.998Z,6.60
2022-10-18T22:53:34.744Z,6.90
2022-10-18T22:54:34.714Z,7.40
2022-10-18T22:55:34.706Z,6.60
2022-10-18T22:56:34.689Z,7.00
2022-10-18T22:57:34.683Z,6.90
2022-10-18T22:58:34.688Z,6.80
2022-10-18T22:59:34.660Z,6.50
2022-10-18T23:00:34.796Z,6.60
2022-10-18T23:01:34.660Z,6.90
2022-10-18T23:02:34.950Z,7.10
2022-10-18T23:03:34.635Z,7.30
2022-10-18T23:04:34.604Z,7.70
2022-10-18T23:05:34.601Z,7.10
2022-10-18T23:06:34.601Z,7.80
2022-10-18T23:07:34.600Z,7.50
2022-10-18T23:08:34.562Z,7.60
2022-10-18T23:09:34.593Z,7.30
2022-10-18T23:10:34.542Z,7.20
2022-10-18T23:11:34.546Z,8.00
2022-10-18T23:12:34.779Z,7.30
2022-10-18T23:13:37.399Z,7.30
2022-10-18T23:14:35.491Z,7.40
2022-10-18T23:15:34.486Z,6.80
2022-10-18T23:16:42.004Z,7.60
2022-10-18T23:17:34.785Z,7.50
2022-10-18T23:18:34.527Z,7.10
2022-10-18T23:19:34.450Z,6.80
2022-10-18T23:20:34.420Z,7.60
2022-10-18T23:21:34.415Z,7.50
2022-10-18T23:22:34.742Z,7.10
2022-10-18T23:23:34.394Z,7.50
2022-10-18T23:24:34.397Z,6.90
2022-10-18T23:25:34.374Z,7.20
2022-10-18T23:26:34.393Z,7.30
2022-10-18T23:27:34.413Z,6.00
2022-10-18T23:28:34.381Z,5.80
2022-10-18T23:29:34.346Z,5.70
2022-10-18T23:30:34.321Z,6.20
2022-10-18T23:31:34.335Z,5.60
2022-10-18T23:32:34.698Z,5.30
2022-10-18T23:33:34.291Z,5.60
2022-10-18T23:34:34.285Z,5.30
2022-10-18T23:35:34.263Z,5.60
2022-10-18T23:36:34.482Z,5.70
2022-10-18T23:37:34.628Z,5.70
2022-10-18T23:38:34.223Z,5.60
2022-10-18T23:39:34.220Z,5.40
2022-10-18T23:40:34.219Z,5.40
2022-10-18T23:41:34.206Z,5.50
2022-10-18T23:42:34.199Z,5.60
2022-10-18T23:43:34.174Z,5.60
2022-10-18T23:44:34.163Z,6.00
2022-10-18T23:45:34.231Z,6.30
2022-10-18T23:46:34.159Z,5.70
2022-10-18T23:47:34.487Z,5.60
2022-10-18T23:48:34.145Z,6.10
2022-10-18T23:49:34.107Z,6.60
2022-10-18T23:50:34.094Z,6.70
2022-10-18T23:51:34.092Z,6.50
2022-10-18T23:52:34.076Z,6.10
2022-10-18T23:53:34.080Z,5.70
2022-10-18T23:54:34.091Z,6.40
2022-10-18T23:55:34.048Z,6.30
2022-10-18T23:56:34.024Z,6.30
2022-10-18T23:57:34.403Z,6.30
2022-10-18T23:58:34.023Z,7.00
2022-10-18T23:59:34.000Z,6.50
